x

Half Moon Bay - 24nm Ssw Of San Francisco, Ca (46012) Wave Buoy

3:50am - Sat 23rd May 2015 All times are PDT. -7 hours from GMT.

  • Sig Wave height 5.2ft
  • Swell Direction
  • Peak Period 11s
  • Average Period 6s
  • Wind
    20mph, 25mph gusts
  • Sea Temp 56°f
  • Air Temp 55°f
  • Sea Pressure 1017.8mb
  • Half Moon Bay - 24nm Ssw Of San Francisco, Ca
  • Half Moon Bay - 24nm Ssw Of San Francisco, Ca

More Historic Weather Station data

Upgrade to MSW Pro to gain access to the past 30 days of data for over 8000 Wavebouys and Weather Stations around the globe.

Join Pro

Comparision Forecast

View Surf forecast
   
Sat 05/23 3:50am 5ft 11s 6s 20 25 mph 1017.8mb 56f 55f
2:50am 5ft 11s 6s 20 25 mph 1017.9mb 56f 56f
1:50am 4.5ft 11s 6s 18 25 mph 1017.8mb 56f 56f
12:50am 4.5ft 10s 6s 13 16 mph 1018mb 56f 56f
Fri 05/22 11:50pm 4.5ft 10s 6s 11 16 mph 1018mb 56f 56f
10:50pm 4.5ft 11s 6s 11 13 mph 1018.2mb 56f 57f
9:50pm 4.5ft 11s 6s 13 16 mph 1018mb 56f 57f
8:50pm 4.5ft 11s 6s 13 16 mph 1017.7mb 56f 56f
7:50pm 4.5ft 10s 6s 11 13 mph 1017.4mb 55f 56f
6:50pm 4ft 11s 6s 13 18 mph 1017.1mb 55f 57f
5:50pm 4ft 11s 6s 13 16 mph 1017mb 55f 57f
4:50pm 3.5ft 11s 6s 13 18 mph 1016.8mb 56f 57f
3:50pm 4.5ft 10s 7s 11 13 mph 1016.6mb 56f 56f
2:50pm 4ft 11s 7s 11 13 mph 1016.8mb 56f 56f
1:50pm 4ft 11s 7s 13 18 mph 1016.8mb 56f 56f
12:50pm 3.5ft 12s 7s 9 11 mph 1016.9mb 56f 57f
11:50am 4.5ft 10s 8s 7 9 mph 1016.8mb 56f 56f
10:50am 4.5ft 10s 8s 7 9 mph 1016.5mb 56f 56f
9:50am 3.5ft 11s 7s 4
mph
1016.4mb 56f 56f
8:50am 4ft 11s 8s 4 7 mph 1016.3mb 56f 56f
7:50am 4ft 12s 8s 4 7 mph 1015.7mb 56f 56f
6:50am 4ft 11s 8s 4 7 mph 1015.4mb 56f 56f
5:50am 4.5ft 11s 9s 4 7 mph 1015.1mb 56f 56f
4:50am 4.5ft 12s 8s 4 7 mph 1014.8mb 56f 56f
3:50am 3.5ft 12s 8s 7
mph
1014.6mb 56f 56f
2:50am 3.5ft 11s 8s 7
mph
1014.6mb 56f 56f
1:50am 4.5ft 13s 8s 4 7 mph 1014.7mb 56f 56f
12:50am 4ft 12s 8s 7
mph
1014.6mb 56f 56f
Thu 05/21 11:50pm 4.5ft 12s 9s 4 7 mph 1014.6mb 56f 56f
10:50pm 4.5ft 12s 8s 4 7 mph 1014.7mb 56f 56f
9:50pm 3.5ft 12s 8s 4
mph
1014.6mb 56f 56f
8:50pm 3.5ft 12s 7s 4 7 mph 1014.1mb 56f 56f
7:50pm 3.5ft 12s 8s 7 9 mph 1013.9mb 56f 56f
6:50pm 3.5ft 12s 8s 4 7 mph 1013.6mb 56f 57f
5:50pm 3.5ft 13s 7s 7
mph
1013.7mb 56f 57f
4:50pm 3.5ft 12s 7s 7
mph
1013.5mb 56f 57f
3:50pm 3.5ft 13s 7s 7 9 mph 1013.7mb 56f 57f
2:50pm 3.5ft 13s 7s 7 9 mph 1013.9mb 56f 57f
1:50pm 3.5ft 13s 8s 2 4 mph 1014.1mb 56f 56f
12:50pm 3.5ft 13s 7s 2
mph
1014.3mb 56f 56f
11:50am 3.5ft 13s 7s 2
mph
1014.2mb 56f 56f
10:50am 3.5ft 13s 7s 2
mph
1013.8mb 55f 55f
9:50am 3.5ft 13s 7s 4 7 mph 1013.8mb 55f 55f
8:50am 3.5ft 14s 7s 7 9 mph 1013.7mb 55f 55f
7:50am 3.5ft 14s 7s 4 7 mph 1013.7mb 55f 55f
6:50am 3.5ft 14s 7s 7 9 mph 1013.5mb 55f 55f
5:50am 3.5ft 14s 7s 7 9 mph 1013.2mb 55f 55f
4:50am 4ft 14s 7s 9
mph
1013.2mb 56f 55f
3:50am 3.5ft 14s 7s 7 9 mph 1013.1mb 56f 55f
2:50am 4ft 14s 7s 7 9 mph 1013.1mb 56f 55f
1:50am 3.5ft 14s 7s 4 7 mph 1013.4mb 56f 55f
12:50am 4ft 14s 7s 9 11 mph 1013.9mb 56f 55f
Wed 05/20 11:50pm 4ft 15s 6s 11 13 mph 1014.1mb 56f 55f
10:50pm 4ft 14s 7s 11 13 mph 1014.3mb 56f 56f
9:50pm 4.5ft 10s 7s 9 11 mph 1014.2mb 56f 56f
8:50pm 4.5ft 15s 7s 11 13 mph 1014mb 56f 56f
7:50pm 4.5ft 11s 7s 11 13 mph 1013.7mb 56f 56f
6:50pm 4.5ft 7s 7s 11
mph
1013.5mb 56f 56f
5:50pm 4.5ft 11s 7s 7 9 mph 1013.7mb 56f 56f
4:50pm 4.5ft 11s 7s 7 9 mph 1014mb 56f 55f
3:50pm 4.5ft 11s 7s 9 11 mph 1014.3mb 56f 56f
2:50pm 4.5ft 7s 6s 9
mph
1014.4mb 56f 56f
1:50pm 4.5ft 11s 7s 7 9 mph 1014.8mb 56f 55f
12:50pm 4.5ft 11s 7s 9 11 mph 1015.3mb 55f 56f
11:50am 5ft 11s 7s 11 13 mph 1015.3mb 55f 56f
10:50am 5ft 11s 6s 9
mph
1015.1mb 55f 56f
9:50am 5ft 11s 6s 13 16 mph 1014.9mb 55f 55f
8:50am 5ft 11s 6s 9 11 mph 1014.8mb 55f 54f
7:50am 5ft 11s 6s 11 13 mph 1014.4mb 55f 54f
6:50am 4.5ft 11s 6s 11 13 mph 1014.1mb 55f 55f
5:50am 5ft 11s 6s 9 11 mph 1013.8mb 55f 55f
4:50am 5ft 7s 6s 9 13 mph 1013.9mb 55f 55f
3:50am 5.5ft 11s 7s 9 11 mph 1014.2mb 55f 56f
2:50am 5ft 11s 7s 11 13 mph 1014.7mb 55f 56f
1:50am 5ft 11s 7s 11 13 mph 1014.9mb 55f 56f
12:50am 5ft 12s 7s 13 16 mph 1015.2mb 55f 55f
Tue 05/19 11:50pm 5.5ft 11s 7s 11 16 mph 1015.6mb 55f 55f
10:50pm 5ft 11s 6s 16 18 mph 1016mb 55f 55f
9:50pm 5.5ft 11s 6s 16 18 mph 1016.2mb 55f 56f
8:50pm 5.5ft 12s 6s 16 20 mph 1015.8mb 55f 56f
7:50pm 5ft 12s 6s 13 16 mph 1016mb 55f 56f
6:50pm 5ft 12s 6s 16 18 mph 1016.3mb 55f 56f
5:50pm 5ft 12s 7s 13 16 mph 1016.7mb 56f 56f
4:50pm 5ft 11s 7s 11 13 mph 1017.1mb 56f 56f
3:50pm 5ft 11s 7s 13 16 mph 1017.8mb 56f 56f
2:50pm 5ft 12s 7s 11 13 mph 1018.4mb 56f 56f
1:50pm 5ft 11s 7s 11 13 mph 1018.7mb 55f 56f
12:50pm 5ft 11s 7s 11 13 mph 1018.9mb 55f 56f